sensor_id;sensor_type;location;lat;lon;timestamp;P1;durP1;ratioP1;P2;durP2;ratioP2
36963;SDS011;22878;48.616;35.326;2023-12-14T00:01:13;36.40;;;9.60;;
36963;SDS011;22878;48.616;35.326;2023-12-14T00:03:40;30.80;;;9.10;;
36963;SDS011;22878;48.616;35.326;2023-12-14T00:06:10;32.10;;;10.10;;
36963;SDS011;22878;48.616;35.326;2023-12-14T00:08:36;40.90;;;10.50;;
36963;SDS011;22878;48.616;35.326;2023-12-14T00:11:05;43.00;;;10.90;;
36963;SDS011;22878;48.616;35.326;2023-12-14T00:13:31;43.00;;;10.80;;
36963;SDS011;22878;48.616;35.326;2023-12-14T00:15:57;41.30;;;11.00;;
36963;SDS011;22878;48.616;35.326;2023-12-14T00:18:23;47.80;;;10.40;;
36963;SDS011;22878;48.616;35.326;2023-12-14T00:20:48;40.70;;;10.50;;
36963;SDS011;22878;48.616;35.326;2023-12-14T00:23:14;32.90;;;10.20;;
36963;SDS011;22878;48.616;35.326;2023-12-14T00:25:40;49.70;;;11.90;;
36963;SDS011;22878;48.616;35.326;2023-12-14T00:28:05;33.30;;;10.90;;
36963;SDS011;22878;48.616;35.326;2023-12-14T00:30:31;29.80;;;9.70;;
36963;SDS011;22878;48.616;35.326;2023-12-14T00:32:57;28.10;;;9.90;;
36963;SDS011;22878;48.616;35.326;2023-12-14T00:35:22;41.60;;;13.30;;
36963;SDS011;22878;48.616;35.326;2023-12-14T00:37:48;42.00;;;10.40;;
36963;SDS011;22878;48.616;35.326;2023-12-14T00:40:13;34.60;;;10.70;;
36963;SDS011;22878;48.616;35.326;2023-12-14T00:42:39;38.90;;;10.40;;
36963;SDS011;22878;48.616;35.326;2023-12-14T00:45:05;43.10;;;11.20;;
36963;SDS011;22878;48.616;35.326;2023-12-14T00:47:30;35.50;;;11.40;;
36963;SDS011;22878;48.616;35.326;2023-12-14T00:49:56;38.90;;;11.10;;
36963;SDS011;22878;48.616;35.326;2023-12-14T00:52:22;38.80;;;11.40;;
36963;SDS011;22878;48.616;35.326;2023-12-14T00:54:47;52.40;;;11.20;;
36963;SDS011;22878;48.616;35.326;2023-12-14T00:57:13;46.90;;;10.60;;
36963;SDS011;22878;48.616;35.326;2023-12-14T00:59:38;38.80;;;10.80;;
36963;SDS011;22878;48.616;35.326;2023-12-14T01:02:05;34.30;;;10.50;;
36963;SDS011;22878;48.616;35.326;2023-12-14T01:04:31;34.80;;;9.80;;
36963;SDS011;22878;48.616;35.326;2023-12-14T01:06:57;38.80;;;10.60;;
36963;SDS011;22878;48.616;35.326;2023-12-14T01:09:22;33.10;;;9.70;;
36963;SDS011;22878;48.616;35.326;2023-12-14T01:11:48;31.40;;;9.40;;
36963;SDS011;22878;48.616;35.326;2023-12-14T01:14:14;30.60;;;9.60;;
36963;SDS011;22878;48.616;35.326;2023-12-14T01:16:40;30.60;;;9.70;;
36963;SDS011;22878;48.616;35.326;2023-12-14T01:19:05;26.30;;;8.20;;
36963;SDS011;22878;48.616;35.326;2023-12-14T01:21:31;25.50;;;8.60;;
36963;SDS011;22878;48.616;35.326;2023-12-14T01:23:57;29.50;;;8.90;;
36963;SDS011;22878;48.616;35.326;2023-12-14T01:26:23;33.10;;;9.00;;
36963;SDS011;22878;48.616;35.326;2023-12-14T01:28:48;38.40;;;9.30;;
36963;SDS011;22878;48.616;35.326;2023-12-14T01:31:14;35.70;;;9.80;;
36963;SDS011;22878;48.616;35.326;2023-12-14T01:33:40;38.10;;;9.70;;
36963;SDS011;22878;48.616;35.326;2023-12-14T01:36:05;38.60;;;9.60;;
36963;SDS011;22878;48.616;35.326;2023-12-14T01:38:31;39.40;;;9.30;;
36963;SDS011;22878;48.616;35.326;2023-12-14T01:40:57;29.90;;;9.00;;
36963;SDS011;22878;48.616;35.326;2023-12-14T01:43:24;33.60;;;9.70;;
36963;SDS011;22878;48.616;35.326;2023-12-14T01:45:49;33.20;;;9.70;;
36963;SDS011;22878;48.616;35.326;2023-12-14T01:48:15;35.80;;;9.80;;
36963;SDS011;22878;48.616;35.326;2023-12-14T01:50:41;30.10;;;8.50;;
36963;SDS011;22878;48.616;35.326;2023-12-14T01:53:06;39.50;;;10.20;;
36963;SDS011;22878;48.616;35.326;2023-12-14T01:55:32;36.70;;;9.70;;
36963;SDS011;22878;48.616;35.326;2023-12-14T01:57:57;41.00;;;10.30;;
36963;SDS011;22878;48.616;35.326;2023-12-14T02:03:09;35.50;;;11.10;;
36963;SDS011;22878;48.616;35.326;2023-12-14T02:05:36;37.70;;;10.10;;
36963;SDS011;22878;48.616;35.326;2023-12-14T02:08:01;38.60;;;9.90;;
36963;SDS011;22878;48.616;35.326;2023-12-14T02:10:27;34.00;;;9.90;;
36963;SDS011;22878;48.616;35.326;2023-12-14T02:12:52;40.90;;;10.80;;
36963;SDS011;22878;48.616;35.326;2023-12-14T02:15:18;34.10;;;10.30;;
36963;SDS011;22878;48.616;35.326;2023-12-14T02:17:43;52.90;;;10.60;;
36963;SDS011;22878;48.616;35.326;2023-12-14T02:20:09;36.90;;;9.90;;
36963;SDS011;22878;48.616;35.326;2023-12-14T02:22:40;41.30;;;10.10;;
36963;SDS011;22878;48.616;35.326;2023-12-14T02:25:15;42.00;;;9.80;;
36963;SDS011;22878;48.616;35.326;2023-12-14T02:27:41;33.80;;;10.30;;
36963;SDS011;22878;48.616;35.326;2023-12-14T02:30:06;35.50;;;10.30;;
36963;SDS011;22878;48.616;35.326;2023-12-14T02:32:32;38.50;;;9.70;;
36963;SDS011;22878;48.616;35.326;2023-12-14T02:34:58;38.30;;;10.20;;
36963;SDS011;22878;48.616;35.326;2023-12-14T02:37:24;37.60;;;9.90;;
36963;SDS011;22878;48.616;35.326;2023-12-14T02:39:49;33.50;;;9.50;;
36963;SDS011;22878;48.616;35.326;2023-12-14T02:42:15;32.00;;;9.60;;
36963;SDS011;22878;48.616;35.326;2023-12-14T02:44:40;36.70;;;10.00;;
36963;SDS011;22878;48.616;35.326;2023-12-14T02:47:06;32.30;;;9.60;;
36963;SDS011;22878;48.616;35.326;2023-12-14T02:49:31;36.00;;;8.50;;
36963;SDS011;22878;48.616;35.326;2023-12-14T02:51:57;39.20;;;9.40;;
36963;SDS011;22878;48.616;35.326;2023-12-14T02:54:23;43.80;;;8.60;;
36963;SDS011;22878;48.616;35.326;2023-12-14T02:56:48;27.70;;;8.10;;
36963;SDS011;22878;48.616;35.326;2023-12-14T02:59:14;35.80;;;8.90;;
36963;SDS011;22878;48.616;35.326;2023-12-14T03:01:39;35.30;;;9.00;;
36963;SDS011;22878;48.616;35.326;2023-12-14T03:04:06;38.50;;;8.10;;
36963;SDS011;22878;48.616;35.326;2023-12-14T03:06:32;34.30;;;8.10;;
36963;SDS011;22878;48.616;35.326;2023-12-14T03:08:57;38.10;;;8.40;;
36963;SDS011;22878;48.616;35.326;2023-12-14T03:11:23;28.00;;;8.30;;
36963;SDS011;22878;48.616;35.326;2023-12-14T03:13:49;29.50;;;8.90;;
36963;SDS011;22878;48.616;35.326;2023-12-14T03:16:15;28.70;;;8.50;;
36963;SDS011;22878;48.616;35.326;2023-12-14T03:18:42;28.70;;;8.20;;
36963;SDS011;22878;48.616;35.326;2023-12-14T03:21:08;33.80;;;8.80;;
36963;SDS011;22878;48.616;35.326;2023-12-14T03:23:34;35.20;;;8.30;;
36963;SDS011;22878;48.616;35.326;2023-12-14T03:26:00;33.70;;;8.70;;
36963;SDS011;22878;48.616;35.326;2023-12-14T03:28:26;36.90;;;8.70;;
36963;SDS011;22878;48.616;35.326;2023-12-14T03:30:52;38.80;;;8.70;;
36963;SDS011;22878;48.616;35.326;2023-12-14T03:33:18;32.20;;;8.20;;
36963;SDS011;22878;48.616;35.326;2023-12-14T03:35:44;32.40;;;8.80;;
36963;SDS011;22878;48.616;35.326;2023-12-14T03:38:13;32.40;;;9.10;;
36963;SDS011;22878;48.616;35.326;2023-12-14T03:40:38;36.00;;;8.90;;
36963;SDS011;22878;48.616;35.326;2023-12-14T03:43:04;36.40;;;9.20;;
36963;SDS011;22878;48.616;35.326;2023-12-14T03:45:30;37.10;;;9.50;;
36963;SDS011;22878;48.616;35.326;2023-12-14T03:47:55;26.80;;;7.60;;
36963;SDS011;22878;48.616;35.326;2023-12-14T03:50:21;28.00;;;8.50;;
36963;SDS011;22878;48.616;35.326;2023-12-14T03:52:47;37.20;;;8.90;;
36963;SDS011;22878;48.616;35.326;2023-12-14T03:55:13;33.10;;;9.30;;
36963;SDS011;22878;48.616;35.326;2023-12-14T03:57:40;34.00;;;9.00;;
36963;SDS011;22878;48.616;35.326;2023-12-14T04:00:07;30.10;;;8.90;;
36963;SDS011;22878;48.616;35.326;2023-12-14T04:02:35;34.20;;;8.30;;
36963;SDS011;22878;48.616;35.326;2023-12-14T04:05:01;27.90;;;8.10;;
36963;SDS011;22878;48.616;35.326;2023-12-14T04:07:26;26.80;;;8.50;;
36963;SDS011;22878;48.616;35.326;2023-12-14T04:09:55;37.30;;;8.80;;
36963;SDS011;22878;48.616;35.326;2023-12-14T04:12:21;31.90;;;8.70;;
36963;SDS011;22878;48.616;35.326;2023-12-14T04:14:46;32.60;;;8.50;;
36963;SDS011;22878;48.616;35.326;2023-12-14T04:17:12;35.40;;;9.60;;
36963;SDS011;22878;48.616;35.326;2023-12-14T04:19:38;32.50;;;8.70;;
36963;SDS011;22878;48.616;35.326;2023-12-14T04:22:04;34.60;;;8.90;;
36963;SDS011;22878;48.616;35.326;2023-12-14T04:24:30;29.40;;;8.50;;
36963;SDS011;22878;48.616;35.326;2023-12-14T04:26:55;27.80;;;8.70;;
36963;SDS011;22878;48.616;35.326;2023-12-14T04:29:21;31.70;;;8.00;;
36963;SDS011;22878;48.616;35.326;2023-12-14T04:31:47;34.40;;;9.40;;
36963;SDS011;22878;48.616;35.326;2023-12-14T04:34:13;30.40;;;8.90;;
36963;SDS011;22878;48.616;35.326;2023-12-14T04:36:44;30.50;;;8.40;;
36963;SDS011;22878;48.616;35.326;2023-12-14T04:39:10;32.90;;;8.70;;
36963;SDS011;22878;48.616;35.326;2023-12-14T04:41:36;30.00;;;9.10;;
36963;SDS011;22878;48.616;35.326;2023-12-14T04:44:02;34.60;;;9.30;;
36963;SDS011;22878;48.616;35.326;2023-12-14T04:46:28;27.30;;;8.90;;
36963;SDS011;22878;48.616;35.326;2023-12-14T04:48:53;26.30;;;8.70;;
36963;SDS011;22878;48.616;35.326;2023-12-14T04:51:19;31.10;;;9.10;;
36963;SDS011;22878;48.616;35.326;2023-12-14T04:53:45;25.60;;;9.20;;
36963;SDS011;22878;48.616;35.326;2023-12-14T04:56:11;27.20;;;8.80;;
36963;SDS011;22878;48.616;35.326;2023-12-14T04:58:41;32.30;;;9.50;;
36963;SDS011;22878;48.616;35.326;2023-12-14T05:01:07;26.10;;;9.20;;
36963;SDS011;22878;48.616;35.326;2023-12-14T05:03:34;29.80;;;9.30;;
36963;SDS011;22878;48.616;35.326;2023-12-14T05:06:00;32.60;;;9.10;;
36963;SDS011;22878;48.616;35.326;2023-12-14T05:08:26;32.20;;;8.20;;
36963;SDS011;22878;48.616;35.326;2023-12-14T05:10:51;28.70;;;9.70;;
36963;SDS011;22878;48.616;35.326;2023-12-14T05:13:17;26.70;;;9.70;;
36963;SDS011;22878;48.616;35.326;2023-12-14T05:15:43;34.30;;;8.90;;
36963;SDS011;22878;48.616;35.326;2023-12-14T05:18:08;36.80;;;9.30;;
36963;SDS011;22878;48.616;35.326;2023-12-14T05:20:34;32.50;;;9.20;;
36963;SDS011;22878;48.616;35.326;2023-12-14T05:23:00;28.90;;;9.40;;
36963;SDS011;22878;48.616;35.326;2023-12-14T05:25:26;30.50;;;9.10;;
36963;SDS011;22878;48.616;35.326;2023-12-14T05:27:52;29.30;;;9.40;;
36963;SDS011;22878;48.616;35.326;2023-12-14T05:30:17;25.40;;;10.30;;
36963;SDS011;22878;48.616;35.326;2023-12-14T05:32:43;31.30;;;10.50;;
36963;SDS011;22878;48.616;35.326;2023-12-14T05:35:09;38.50;;;10.60;;
36963;SDS011;22878;48.616;35.326;2023-12-14T05:37:35;35.20;;;10.20;;
36963;SDS011;22878;48.616;35.326;2023-12-14T05:40:01;38.00;;;10.80;;
36963;SDS011;22878;48.616;35.326;2023-12-14T05:42:27;32.20;;;9.10;;
36963;SDS011;22878;48.616;35.326;2023-12-14T05:44:53;36.50;;;10.20;;
36963;SDS011;22878;48.616;35.326;2023-12-14T05:47:19;35.40;;;10.20;;
36963;SDS011;22878;48.616;35.326;2023-12-14T05:49:44;35.70;;;10.00;;
36963;SDS011;22878;48.616;35.326;2023-12-14T05:52:10;31.70;;;11.10;;
36963;SDS011;22878;48.616;35.326;2023-12-14T05:54:36;27.10;;;9.50;;
36963;SDS011;22878;48.616;35.326;2023-12-14T05:57:03;31.40;;;10.10;;
36963;SDS011;22878;48.616;35.326;2023-12-14T05:59:29;36.60;;;10.50;;
36963;SDS011;22878;48.616;35.326;2023-12-14T06:01:58;28.70;;;10.10;;
36963;SDS011;22878;48.616;35.326;2023-12-14T06:04:25;31.90;;;10.20;;
36963;SDS011;22878;48.616;35.326;2023-12-14T06:06:52;31.20;;;9.90;;
36963;SDS011;22878;48.616;35.326;2023-12-14T06:09:17;27.50;;;9.10;;
36963;SDS011;22878;48.616;35.326;2023-12-14T06:11:46;29.70;;;9.50;;
36963;SDS011;22878;48.616;35.326;2023-12-14T06:14:12;33.50;;;9.70;;
36963;SDS011;22878;48.616;35.326;2023-12-14T06:16:38;43.10;;;10.60;;
36963;SDS011;22878;48.616;35.326;2023-12-14T06:19:04;34.40;;;10.90;;
36963;SDS011;22878;48.616;35.326;2023-12-14T06:21:29;28.60;;;10.10;;
36963;SDS011;22878;48.616;35.326;2023-12-14T06:23:56;37.50;;;10.90;;
36963;SDS011;22878;48.616;35.326;2023-12-14T06:26:22;31.40;;;10.40;;
36963;SDS011;22878;48.616;35.326;2023-12-14T06:28:48;33.20;;;10.50;;
36963;SDS011;22878;48.616;35.326;2023-12-14T06:31:14;30.20;;;10.60;;
36963;SDS011;22878;48.616;35.326;2023-12-14T06:33:40;28.50;;;10.30;;
36963;SDS011;22878;48.616;35.326;2023-12-14T06:36:07;35.00;;;10.30;;
36963;SDS011;22878;48.616;35.326;2023-12-14T06:38:33;32.20;;;9.80;;
36963;SDS011;22878;48.616;35.326;2023-12-14T06:41:00;32.00;;;11.10;;
36963;SDS011;22878;48.616;35.326;2023-12-14T06:43:27;39.30;;;10.30;;
36963;SDS011;22878;48.616;35.326;2023-12-14T06:45:53;37.40;;;11.10;;
36963;SDS011;22878;48.616;35.326;2023-12-14T06:48:18;32.60;;;10.80;;
36963;SDS011;22878;48.616;35.326;2023-12-14T06:50:45;38.20;;;10.80;;
36963;SDS011;22878;48.616;35.326;2023-12-14T06:53:10;42.20;;;11.40;;
36963;SDS011;22878;48.616;35.326;2023-12-14T06:55:36;33.40;;;12.60;;
36963;SDS011;22878;48.616;35.326;2023-12-14T06:58:02;35.40;;;11.10;;
36963;SDS011;22878;48.616;35.326;2023-12-14T07:00:29;34.10;;;11.20;;
36963;SDS011;22878;48.616;35.326;2023-12-14T07:02:55;41.40;;;11.70;;
36963;SDS011;22878;48.616;35.326;2023-12-14T07:05:21;35.40;;;11.50;;
36963;SDS011;22878;48.616;35.326;2023-12-14T07:07:46;42.90;;;11.70;;
36963;SDS011;22878;48.616;35.326;2023-12-14T07:10:12;36.20;;;12.20;;
36963;SDS011;22878;48.616;35.326;2023-12-14T07:12:38;33.00;;;11.60;;
36963;SDS011;22878;48.616;35.326;2023-12-14T07:15:04;32.20;;;12.30;;
36963;SDS011;22878;48.616;35.326;2023-12-14T07:17:31;39.40;;;12.20;;
36963;SDS011;22878;48.616;35.326;2023-12-14T07:19:56;36.80;;;12.00;;
36963;SDS011;22878;48.616;35.326;2023-12-14T07:22:22;32.70;;;12.50;;
36963;SDS011;22878;48.616;35.326;2023-12-14T07:24:48;34.70;;;12.30;;
36963;SDS011;22878;48.616;35.326;2023-12-14T07:27:13;37.50;;;12.40;;
36963;SDS011;22878;48.616;35.326;2023-12-14T07:29:39;36.40;;;11.70;;
36963;SDS011;22878;48.616;35.326;2023-12-14T07:32:05;46.60;;;13.10;;
36963;SDS011;22878;48.616;35.326;2023-12-14T07:34:31;36.80;;;13.80;;
36963;SDS011;22878;48.616;35.326;2023-12-14T07:36:56;39.50;;;13.60;;
36963;SDS011;22878;48.616;35.326;2023-12-14T07:39:22;38.20;;;13.10;;
36963;SDS011;22878;48.616;35.326;2023-12-14T07:41:48;40.80;;;13.90;;
36963;SDS011;22878;48.616;35.326;2023-12-14T07:44:13;39.10;;;13.00;;
36963;SDS011;22878;48.616;35.326;2023-12-14T07:46:39;42.60;;;12.60;;
36963;SDS011;22878;48.616;35.326;2023-12-14T07:49:07;39.20;;;13.60;;
36963;SDS011;22878;48.616;35.326;2023-12-14T07:51:33;47.40;;;14.40;;
36963;SDS011;22878;48.616;35.326;2023-12-14T07:53:58;44.50;;;12.60;;
36963;SDS011;22878;48.616;35.326;2023-12-14T07:56:24;40.20;;;13.50;;
36963;SDS011;22878;48.616;35.326;2023-12-14T07:58:52;43.70;;;14.40;;
36963;SDS011;22878;48.616;35.326;2023-12-14T08:01:18;42.30;;;14.00;;
36963;SDS011;22878;48.616;35.326;2023-12-14T08:03:45;37.60;;;13.10;;
36963;SDS011;22878;48.616;35.326;2023-12-14T08:06:11;45.50;;;13.50;;
36963;SDS011;22878;48.616;35.326;2023-12-14T08:08:37;42.20;;;12.90;;
36963;SDS011;22878;48.616;35.326;2023-12-14T08:11:03;46.10;;;14.00;;
36963;SDS011;22878;48.616;35.326;2023-12-14T08:13:30;46.00;;;14.70;;
36963;SDS011;22878;48.616;35.326;2023-12-14T08:15:56;47.30;;;14.10;;
36963;SDS011;22878;48.616;35.326;2023-12-14T08:18:21;47.70;;;13.90;;
36963;SDS011;22878;48.616;35.326;2023-12-14T08:20:47;42.90;;;14.10;;
36963;SDS011;22878;48.616;35.326;2023-12-14T08:23:13;54.60;;;15.30;;
36963;SDS011;22878;48.616;35.326;2023-12-14T08:25:38;54.80;;;14.90;;
36963;SDS011;22878;48.616;35.326;2023-12-14T08:28:04;44.80;;;14.60;;
36963;SDS011;22878;48.616;35.326;2023-12-14T08:30:30;54.60;;;15.30;;
36963;SDS011;22878;48.616;35.326;2023-12-14T08:32:56;49.80;;;14.40;;
36963;SDS011;22878;48.616;35.326;2023-12-14T08:35:21;47.60;;;14.80;;
36963;SDS011;22878;48.616;35.326;2023-12-14T08:37:47;50.50;;;15.10;;
36963;SDS011;22878;48.616;35.326;2023-12-14T08:43:47;49.60;;;16.10;;
36963;SDS011;22878;48.616;35.326;2023-12-14T08:46:13;51.60;;;15.60;;
36963;SDS011;22878;48.616;35.326;2023-12-14T08:48:38;53.10;;;16.30;;
36963;SDS011;22878;48.616;35.326;2023-12-14T08:51:04;48.90;;;14.60;;
36963;SDS011;22878;48.616;35.326;2023-12-14T08:56:54;54.70;;;16.30;;
36963;SDS011;22878;48.616;35.326;2023-12-14T08:59:37;48.80;;;15.50;;
36963;SDS011;22878;48.616;35.326;2023-12-14T09:02:02;45.00;;;15.10;;
36963;SDS011;22878;48.616;35.326;2023-12-14T09:04:28;46.20;;;14.90;;
36963;SDS011;22878;48.616;35.326;2023-12-14T09:06:54;40.10;;;14.60;;
36963;SDS011;22878;48.616;35.326;2023-12-14T09:09:19;47.00;;;13.80;;
36963;SDS011;22878;48.616;35.326;2023-12-14T09:11:45;45.00;;;14.00;;
36963;SDS011;22878;48.616;35.326;2023-12-14T09:14:11;41.20;;;13.70;;
36963;SDS011;22878;48.616;35.326;2023-12-14T09:16:36;41.00;;;14.10;;
36963;SDS011;22878;48.616;35.326;2023-12-14T09:19:02;39.80;;;13.20;;
36963;SDS011;22878;48.616;35.326;2023-12-14T09:21:31;37.90;;;13.10;;
36963;SDS011;22878;48.616;35.326;2023-12-14T09:23:57;36.40;;;12.70;;
36963;SDS011;22878;48.616;35.326;2023-12-14T09:26:43;37.10;;;14.10;;
36963;SDS011;22878;48.616;35.326;2023-12-14T09:29:08;40.90;;;13.70;;
36963;SDS011;22878;48.616;35.326;2023-12-14T09:31:34;34.90;;;13.30;;
36963;SDS011;22878;48.616;35.326;2023-12-14T09:34:01;37.60;;;13.60;;
36963;SDS011;22878;48.616;35.326;2023-12-14T09:36:26;37.80;;;13.00;;
36963;SDS011;22878;48.616;35.326;2023-12-14T09:38:52;32.70;;;12.00;;
36963;SDS011;22878;48.616;35.326;2023-12-14T09:41:18;33.10;;;12.10;;
36963;SDS011;22878;48.616;35.326;2023-12-14T09:43:51;39.00;;;12.50;;
36963;SDS011;22878;48.616;35.326;2023-12-14T09:46:26;39.40;;;14.60;;
36963;SDS011;22878;48.616;35.326;2023-12-14T09:48:56;38.70;;;12.80;;
36963;SDS011;22878;48.616;35.326;2023-12-14T09:51:25;37.30;;;11.80;;
36963;SDS011;22878;48.616;35.326;2023-12-14T09:53:52;33.70;;;13.10;;
36963;SDS011;22878;48.616;35.326;2023-12-14T09:56:26;33.00;;;12.10;;
36963;SDS011;22878;48.616;35.326;2023-12-14T09:58:53;39.00;;;12.60;;
36963;SDS011;22878;48.616;35.326;2023-12-14T10:01:26;33.20;;;13.00;;
36963;SDS011;22878;48.616;35.326;2023-12-14T10:07:23;34.70;;;11.20;;
36963;SDS011;22878;48.616;35.326;2023-12-14T10:09:52;28.20;;;11.20;;
36963;SDS011;22878;48.616;35.326;2023-12-14T10:12:21;33.80;;;11.90;;
36963;SDS011;22878;48.616;35.326;2023-12-14T10:14:59;31.70;;;11.70;;
36963;SDS011;22878;48.616;35.326;2023-12-14T10:17:32;32.00;;;10.80;;
36963;SDS011;22878;48.616;35.326;2023-12-14T10:19:59;26.70;;;10.00;;
36963;SDS011;22878;48.616;35.326;2023-12-14T10:22:31;31.40;;;11.20;;
36963;SDS011;22878;48.616;35.326;2023-12-14T10:25:01;27.10;;;10.10;;
36963;SDS011;22878;48.616;35.326;2023-12-14T10:27:34;25.10;;;10.50;;
36963;SDS011;22878;48.616;35.326;2023-12-14T10:30:09;27.40;;;10.90;;
36963;SDS011;22878;48.616;35.326;2023-12-14T10:32:37;22.00;;;9.00;;
36963;SDS011;22878;48.616;35.326;2023-12-14T10:35:03;21.80;;;8.80;;
36963;SDS011;22878;48.616;35.326;2023-12-14T10:37:30;18.40;;;8.20;;
36963;SDS011;22878;48.616;35.326;2023-12-14T10:39:58;20.40;;;7.80;;
36963;SDS011;22878;48.616;35.326;2023-12-14T10:42:30;19.30;;;7.60;;
36963;SDS011;22878;48.616;35.326;2023-12-14T10:44:59;16.20;;;7.10;;
36963;SDS011;22878;48.616;35.326;2023-12-14T10:47:27;20.90;;;7.10;;
36963;SDS011;22878;48.616;35.326;2023-12-14T10:49:53;16.20;;;7.30;;
36963;SDS011;22878;48.616;35.326;2023-12-14T10:52:26;14.10;;;6.40;;
36963;SDS011;22878;48.616;35.326;2023-12-14T10:54:58;19.20;;;8.00;;
36963;SDS011;22878;48.616;35.326;2023-12-14T10:57:31;14.20;;;6.40;;
36963;SDS011;22878;48.616;35.326;2023-12-14T11:00:02;13.80;;;6.10;;
36963;SDS011;22878;48.616;35.326;2023-12-14T11:02:54;19.30;;;7.10;;
36963;SDS011;22878;48.616;35.326;2023-12-14T11:05:27;16.70;;;6.00;;
36963;SDS011;22878;48.616;35.326;2023-12-14T11:07:56;11.50;;;5.90;;
36963;SDS011;22878;48.616;35.326;2023-12-14T11:10:43;15.40;;;6.70;;
36963;SDS011;22878;48.616;35.326;2023-12-14T11:13:24;13.20;;;6.10;;
36963;SDS011;22878;48.616;35.326;2023-12-14T11:15:58;13.50;;;5.90;;
36963;SDS011;22878;48.616;35.326;2023-12-14T11:18:27;12.50;;;5.20;;
36963;SDS011;22878;48.616;35.326;2023-12-14T11:20:54;13.30;;;5.70;;
36963;SDS011;22878;48.616;35.326;2023-12-14T11:23:29;14.10;;;6.50;;
36963;SDS011;22878;48.616;35.326;2023-12-14T11:26:03;14.00;;;5.90;;
36963;SDS011;22878;48.616;35.326;2023-12-14T11:28:33;13.20;;;5.40;;
36963;SDS011;22878;48.616;35.326;2023-12-14T11:34:08;12.40;;;5.10;;
36963;SDS011;22878;48.616;35.326;2023-12-14T11:36:44;14.60;;;5.70;;
36963;SDS011;22878;48.616;35.326;2023-12-14T11:39:14;12.60;;;5.90;;
36963;SDS011;22878;48.616;35.326;2023-12-14T11:42:01;19.20;;;7.00;;
36963;SDS011;22878;48.616;35.326;2023-12-14T11:44:40;15.80;;;6.50;;
36963;SDS011;22878;48.616;35.326;2023-12-14T11:50:30;15.10;;;7.00;;
36963;SDS011;22878;48.616;35.326;2023-12-14T11:56:08;18.40;;;7.40;;
36963;SDS011;22878;48.616;35.326;2023-12-14T11:58:52;17.50;;;6.50;;
36963;SDS011;22878;48.616;35.326;2023-12-14T12:07:49;22.60;;;8.10;;
36963;SDS011;22878;48.616;35.326;2023-12-14T12:13:49;20.00;;;8.20;;
36963;SDS011;22878;48.616;35.326;2023-12-14T12:16:46;17.70;;;7.70;;
36963;SDS011;22878;48.616;35.326;2023-12-14T12:19:53;20.60;;;8.40;;
36963;SDS011;22878;48.616;35.326;2023-12-14T12:25:23;19.20;;;8.80;;
36963;SDS011;22878;48.616;35.326;2023-12-14T12:28:14;21.00;;;8.50;;
36963;SDS011;22878;48.616;35.326;2023-12-14T12:30:44;21.60;;;8.80;;
36963;SDS011;22878;48.616;35.326;2023-12-14T12:33:14;25.40;;;10.30;;
36963;SDS011;22878;48.616;35.326;2023-12-14T12:35:50;21.20;;;8.40;;
36963;SDS011;22878;48.616;35.326;2023-12-14T12:38:29;23.90;;;8.10;;
36963;SDS011;22878;48.616;35.326;2023-12-14T12:41:00;24.60;;;9.70;;
36963;SDS011;22878;48.616;35.326;2023-12-14T12:43:34;25.50;;;10.30;;
36963;SDS011;22878;48.616;35.326;2023-12-14T12:46:02;26.80;;;11.20;;
36963;SDS011;22878;48.616;35.326;2023-12-14T12:48:29;26.60;;;11.20;;
36963;SDS011;22878;48.616;35.326;2023-12-14T12:50:55;22.10;;;10.20;;
36963;SDS011;22878;48.616;35.326;2023-12-14T12:53:21;27.00;;;10.50;;
36963;SDS011;22878;48.616;35.326;2023-12-14T12:55:49;28.10;;;11.10;;
36963;SDS011;22878;48.616;35.326;2023-12-14T12:58:15;24.30;;;9.30;;
36963;SDS011;22878;48.616;35.326;2023-12-14T13:00:51;25.50;;;10.10;;
36963;SDS011;22878;48.616;35.326;2023-12-14T13:03:23;37.10;;;12.90;;
36963;SDS011;22878;48.616;35.326;2023-12-14T13:05:49;30.80;;;12.60;;
36963;SDS011;22878;48.616;35.326;2023-12-14T13:08:18;32.40;;;12.20;;
36963;SDS011;22878;48.616;35.326;2023-12-14T13:10:47;30.30;;;13.00;;
36963;SDS011;22878;48.616;35.326;2023-12-14T13:13:17;33.60;;;12.90;;
36963;SDS011;22878;48.616;35.326;2023-12-14T13:15:43;35.20;;;13.40;;
36963;SDS011;22878;48.616;35.326;2023-12-14T13:18:10;30.80;;;12.10;;
36963;SDS011;22878;48.616;35.326;2023-12-14T13:20:42;36.30;;;13.20;;
36963;SDS011;22878;48.616;35.326;2023-12-14T13:23:09;30.10;;;11.60;;
36963;SDS011;22878;48.616;35.326;2023-12-14T13:25:35;33.80;;;12.10;;
36963;SDS011;22878;48.616;35.326;2023-12-14T13:28:01;36.00;;;12.60;;
36963;SDS011;22878;48.616;35.326;2023-12-14T13:30:33;39.20;;;12.80;;
36963;SDS011;22878;48.616;35.326;2023-12-14T13:33:02;30.10;;;12.20;;
36963;SDS011;22878;48.616;35.326;2023-12-14T13:35:35;32.10;;;12.10;;
36963;SDS011;22878;48.616;35.326;2023-12-14T13:38:03;35.70;;;12.90;;
36963;SDS011;22878;48.616;35.326;2023-12-14T13:40:34;36.20;;;13.40;;
36963;SDS011;22878;48.616;35.326;2023-12-14T13:43:06;37.20;;;13.80;;
36963;SDS011;22878;48.616;35.326;2023-12-14T13:45:39;36.40;;;12.90;;
36963;SDS011;22878;48.616;35.326;2023-12-14T13:48:07;35.30;;;12.50;;
36963;SDS011;22878;48.616;35.326;2023-12-14T13:50:35;35.50;;;13.00;;
36963;SDS011;22878;48.616;35.326;2023-12-14T13:53:07;36.70;;;13.40;;
36963;SDS011;22878;48.616;35.326;2023-12-14T13:55:36;37.80;;;13.30;;
36963;SDS011;22878;48.616;35.326;2023-12-14T13:58:07;39.50;;;13.30;;
36963;SDS011;22878;48.616;35.326;2023-12-14T14:00:39;34.50;;;12.90;;
36963;SDS011;22878;48.616;35.326;2023-12-14T14:03:10;33.00;;;12.90;;
36963;SDS011;22878;48.616;35.326;2023-12-14T14:05:55;31.70;;;12.00;;
36963;SDS011;22878;48.616;35.326;2023-12-14T14:08:32;38.70;;;13.10;;
36963;SDS011;22878;48.616;35.326;2023-12-14T14:11:03;34.70;;;14.10;;
36963;SDS011;22878;48.616;35.326;2023-12-14T14:13:43;36.40;;;13.30;;
36963;SDS011;22878;48.616;35.326;2023-12-14T14:16:10;38.30;;;14.40;;
36963;SDS011;22878;48.616;35.326;2023-12-14T14:18:58;32.60;;;13.00;;
36963;SDS011;22878;48.616;35.326;2023-12-14T14:21:33;39.00;;;13.80;;
36963;SDS011;22878;48.616;35.326;2023-12-14T14:24:08;42.40;;;15.10;;
36963;SDS011;22878;48.616;35.326;2023-12-14T14:26:37;40.40;;;15.60;;
36963;SDS011;22878;48.616;35.326;2023-12-14T14:29:11;40.70;;;15.20;;
36963;SDS011;22878;48.616;35.326;2023-12-14T14:31:42;48.80;;;16.60;;
36963;SDS011;22878;48.616;35.326;2023-12-14T14:34:11;41.00;;;15.60;;
36963;SDS011;22878;48.616;35.326;2023-12-14T14:36:44;45.30;;;15.80;;
36963;SDS011;22878;48.616;35.326;2023-12-14T14:39:16;47.20;;;16.80;;
36963;SDS011;22878;48.616;35.326;2023-12-14T14:41:44;38.00;;;15.60;;
36963;SDS011;22878;48.616;35.326;2023-12-14T14:44:13;54.10;;;16.90;;
36963;SDS011;22878;48.616;35.326;2023-12-14T14:46:39;58.40;;;18.30;;
36963;SDS011;22878;48.616;35.326;2023-12-14T14:49:05;51.80;;;17.80;;
36963;SDS011;22878;48.616;35.326;2023-12-14T14:51:31;57.50;;;18.30;;
36963;SDS011;22878;48.616;35.326;2023-12-14T14:54:01;58.00;;;18.60;;